Time;durP1;ratioP1;P1;durP2;ratioP2;P2;SDS_P1;SDS_P2;PMS_P1;PMS_P2;Temp;Humidity;BMP_temperature;BMP_pressure;BME280_temperature;BME280_humidity;BME280_pressure;Samples;Min_cycle;Max_cycle;Signal;HPM_P1;HPM_P2
2022/09/22 00:00:26;;;;;;;3.27;2.53;;;;;;;;;;5081020;28;20549;-78
2022/09/22 00:03:36;;;;;;;4.50;2.53;;;;;;;;;;5081189;28;20615;-78
2022/09/22 00:06:46;;;;;;;3.47;2.70;;;;;;;;;;5080746;28;20185;-78
2022/09/22 00:09:50;;;;;;;2.93;2.60;;;;;;;;;;5081839;28;20631;-78
2022/09/22 00:12:54;;;;;;;4.00;3.20;;;;;;;;;;5080501;28;20214;-78
2022/09/22 00:16:00;;;;;;;3.87;3.20;;;;;;;;;;5081359;28;20171;-78
2022/09/22 00:19:06;;;;;;;3.83;3.00;;;;;;;;;;5082616;28;20172;-78
2022/09/22 00:22:11;;;;;;;3.43;2.87;;;;;;;;;;5069828;28;20215;-78
2022/09/22 00:25:15;;;;;;;3.93;2.93;;;;;;;;;;5068936;28;20215;-77
2022/09/22 00:28:21;;;;;;;3.83;3.20;;;;;;;;;;5069340;28;20183;-78
2022/09/22 00:31:25;;;;;;;3.87;2.77;;;;;;;;;;5079482;28;20215;-77
2022/09/22 00:34:29;;;;;;;3.63;2.97;;;;;;;;;;5091713;28;20179;-77
2022/09/22 00:37:33;;;;;;;3.13;2.30;;;;;;;;;;5078838;28;20171;-77
2022/09/22 00:40:38;;;;;;;2.93;2.63;;;;;;;;;;5079283;28;20184;-78
2022/09/22 00:43:43;;;;;;;5.13;2.37;;;;;;;;;;5079316;28;20176;-78
2022/09/22 00:46:51;;;;;;;3.73;2.40;;;;;;;;;;5077679;28;20173;-77
2022/09/22 00:50:20;;;;;;;2.97;2.53;;;;;;;;;;5067101;28;20185;-78
2022/09/22 00:53:25;;;;;;;9.97;3.17;;;;;;;;;;5067786;28;20574;-78
2022/09/22 00:56:35;;;;;;;3.20;2.10;;;;;;;;;;5069905;28;20195;-78
2022/09/22 00:59:42;;;;;;;4.70;2.70;;;;;;;;;;5091857;28;20192;-78
2022/09/22 01:02:50;;;;;;;2.40;2.20;;;;;;;;;;5077735;28;20218;-77
2022/09/22 01:05:58;;;;;;;3.27;2.50;;;;;;;;;;5076249;28;20207;-77
2022/09/22 01:09:03;;;;;;;3.57;2.37;;;;;;;;;;5076574;28;20179;-77
2022/09/22 01:12:07;;;;;;;2.77;2.57;;;;;;;;;;5053117;28;20215;-77
2022/09/22 01:15:35;;;;;;;2.40;2.20;;;;;;;;;;5076152;28;20180;-77
2022/09/22 01:18:57;;;;;;;4.63;2.23;;;;;;;;;;5077990;28;20175;-78
2022/09/22 01:22:18;;;;;;;2.80;2.37;;;;;;;;;;5076517;28;20219;-78
2022/09/22 01:25:43;;;;;;;5.07;2.60;;;;;;;;;;5076719;28;20215;-77
2022/09/22 01:29:02;;;;;;;4.73;2.40;;;;;;;;;;5076397;28;20183;-78
2022/09/22 01:32:22;;;;;;;2.70;2.47;;;;;;;;;;5080554;28;20582;-78
2022/09/22 01:35:51;;;;;;;4.20;2.53;;;;;;;;;;5091474;28;20539;-77
2022/09/22 01:39:28;;;;;;;3.33;2.77;;;;;;;;;;5079736;28;20202;-78
2022/09/22 01:42:36;;;;;;;3.43;2.60;;;;;;;;;;5078163;28;20698;-77
2022/09/22 01:45:43;;;;;;;6.10;2.70;;;;;;;;;;5075541;28;20215;-77
2022/09/22 01:48:49;;;;;;;3.57;2.80;;;;;;;;;;5075522;28;20623;-78
2022/09/22 01:52:00;;;;;;;3.27;2.90;;;;;;;;;;5075524;28;20215;-76
2022/09/22 01:55:10;;;;;;;2.97;2.40;;;;;;;;;;5077458;28;20623;-77
2022/09/22 01:58:19;;;;;;;5.90;2.53;;;;;;;;;;5089307;28;20179;-77
2022/09/22 02:01:28;;;;;;;3.67;2.90;;;;;;;;;;5078480;28;20195;-78
2022/09/22 02:05:01;;;;;;;3.73;2.90;;;;;;;;;;5077352;28;20196;-77
2022/09/22 02:08:15;;;;;;;2.80;2.50;;;;;;;;;;5066680;28;20179;-77
2022/09/22 02:11:20;;;;;;;4.10;2.77;;;;;;;;;;5066935;28;20176;-77
2022/09/22 02:14:25;;;;;;;4.33;2.80;;;;;;;;;;5078551;28;20635;-77
2022/09/22 02:17:31;;;;;;;4.47;2.60;;;;;;;;;;5078094;28;20195;-77
2022/09/22 02:20:35;;;;;;;3.10;2.63;;;;;;;;;;5078303;28;20196;-78
2022/09/22 02:23:40;;;;;;;4.40;3.13;;;;;;;;;;5089659;28;20176;-77
2022/09/22 02:26:45;;;;;;;5.20;2.80;;;;;;;;;;5088889;28;20686;-77
2022/09/22 02:29:54;;;;;;;4.27;2.70;;;;;;;;;;5078321;28;20203;-77
2022/09/22 02:32:59;;;;;;;4.70;2.50;;;;;;;;;;5078137;28;20694;-77
2022/09/22 02:36:19;;;;;;;3.03;2.43;;;;;;;;;;5077820;28;20171;-77
2022/09/22 02:39:33;;;;;;;3.63;2.63;;;;;;;;;;5077293;28;20180;-77
2022/09/22 02:42:43;;;;;;;5.87;3.10;;;;;;;;;;5077227;28;20211;-77
2022/09/22 02:46:02;;;;;;;3.80;2.90;;;;;;;;;;5077548;28;20687;-78
2022/09/22 02:49:12;;;;;;;3.40;2.80;;;;;;;;;;5093041;28;20176;-77
2022/09/22 02:52:19;;;;;;;6.17;2.73;;;;;;;;;;5081477;28;20686;-78
2022/09/22 02:55:23;;;;;;;3.00;2.47;;;;;;;;;;5069796;28;20557;-77
2022/09/22 02:58:27;;;;;;;3.40;2.63;;;;;;;;;;5082091;28;20623;-77
2022/09/22 03:01:32;;;;;;;4.97;2.90;;;;;;;;;;5081333;28;20223;-77
2022/09/22 03:04:36;;;;;;;2.90;2.50;;;;;;;;;;5081741;28;20183;-77
2022/09/22 03:07:40;;;;;;;4.40;2.30;;;;;;;;;;5069378;28;20179;-77
2022/09/22 03:10:44;;;;;;;3.10;2.60;;;;;;;;;;5069317;28;20184;-78
2022/09/22 03:13:48;;;;;;;2.57;2.37;;;;;;;;;;5081199;28;20184;-77
2022/09/22 03:16:53;;;;;;;3.03;2.70;;;;;;;;;;5080981;28;20176;-77
2022/09/22 03:19:57;;;;;;;4.03;3.13;;;;;;;;;;5081968;28;20519;-77
2022/09/22 03:23:01;;;;;;;3.13;2.33;;;;;;;;;;5080612;28;20223;-77
2022/09/22 03:26:05;;;;;;;2.90;2.57;;;;;;;;;;5068864;28;20203;-77
2022/09/22 03:29:10;;;;;;;5.00;2.70;;;;;;;;;;5081171;28;20581;-77
2022/09/22 03:32:14;;;;;;;5.00;2.60;;;;;;;;;;5068842;28;20219;-77
2022/09/22 03:35:18;;;;;;;4.10;2.67;;;;;;;;;;5069050;28;20172;-77
2022/09/22 03:38:22;;;;;;;3.80;3.07;;;;;;;;;;5080331;28;20175;-77
2022/09/22 03:41:26;;;;;;;3.87;3.47;;;;;;;;;;5080942;28;20574;-77
2022/09/22 03:44:31;;;;;;;3.83;2.77;;;;;;;;;;5080868;28;20183;-77
2022/09/22 03:47:35;;;;;;;4.73;3.20;;;;;;;;;;5080825;28;20172;-77
2022/09/22 03:50:39;;;;;;;5.10;2.70;;;;;;;;;;5080443;28;20515;-77
2022/09/22 03:53:44;;;;;;;6.17;3.10;;;;;;;;;;5080444;28;20175;-77
2022/09/22 03:56:49;;;;;;;3.20;2.73;;;;;;;;;;5080491;28;20199;-77
2022/09/22 03:59:53;;;;;;;4.23;2.57;;;;;;;;;;5069644;28;20504;-77
2022/09/22 04:02:57;;;;;;;2.60;2.40;;;;;;;;;;5081315;28;20211;-78
2022/09/22 04:06:03;;;;;;;3.20;2.40;;;;;;;;;;5069103;28;20215;-77
2022/09/22 04:09:07;;;;;;;3.07;2.27;;;;;;;;;;5081678;28;20176;-78
2022/09/22 04:12:11;;;;;;;3.50;2.80;;;;;;;;;;5080127;28;20207;-77
2022/09/22 04:15:15;;;;;;;3.40;2.90;;;;;;;;;;5080147;28;20172;-77
2022/09/22 04:18:20;;;;;;;3.57;2.87;;;;;;;;;;5067863;28;20176;-77
2022/09/22 04:21:25;;;;;;;3.37;2.70;;;;;;;;;;5079538;28;20215;-77
2022/09/22 04:24:29;;;;;;;12.47;3.40;;;;;;;;;;5090561;28;20623;-77
2022/09/22 04:27:33;;;;;;;4.10;2.97;;;;;;;;;;5079345;28;20172;-77
2022/09/22 04:30:38;;;;;;;3.67;2.67;;;;;;;;;;5079439;28;20187;-77
2022/09/22 04:33:42;;;;;;;2.67;2.47;;;;;;;;;;5079993;28;20179;-77
2022/09/22 04:36:46;;;;;;;3.73;2.80;;;;;;;;;;5081171;28;20183;-77
2022/09/22 04:39:52;;;;;;;3.33;2.87;;;;;;;;;;5080578;28;20181;-78
2022/09/22 04:42:57;;;;;;;3.33;2.80;;;;;;;;;;5080677;28;20227;-77
2022/09/22 04:46:01;;;;;;;5.53;3.20;;;;;;;;;;5080929;28;20211;-77
2022/09/22 04:49:05;;;;;;;3.23;2.80;;;;;;;;;;5078714;28;20171;-77
2022/09/22 04:52:09;;;;;;;5.23;3.20;;;;;;;;;;5076833;28;20211;-77
2022/09/22 04:55:14;;;;;;;6.00;3.30;;;;;;;;;;5077817;28;20176;-77
2022/09/22 04:58:18;;;;;;;3.47;2.77;;;;;;;;;;5077675;28;20179;-77
2022/09/22 05:01:26;;;;;;;4.60;2.67;;;;;;;;;;5078098;28;20187;-77
2022/09/22 05:04:29;;;;;;;2.60;2.40;;;;;;;;;;5075535;28;20194;-77
2022/09/22 05:07:34;;;;;;;3.17;2.87;;;;;;;;;;5075145;28;20211;-77
2022/09/22 05:10:38;;;;;;;3.10;2.60;;;;;;;;;;5062347;28;20176;-77
2022/09/22 05:13:42;;;;;;;3.50;2.40;;;;;;;;;;5075835;28;20203;-77
2022/09/22 05:16:46;;;;;;;3.13;2.33;;;;;;;;;;5076802;28;20180;-77
2022/09/22 05:19:54;;;;;;;3.73;2.83;;;;;;;;;;5075506;28;20183;-77
2022/09/22 05:22:58;;;;;;;5.60;3.10;;;;;;;;;;5063318;28;20219;-77
2022/09/22 05:26:03;;;;;;;5.20;2.30;;;;;;;;;;5075085;28;20223;-76
2022/09/22 05:29:07;;;;;;;5.70;2.50;;;;;;;;;;5075479;28;20191;-77
2022/09/22 05:32:11;;;;;;;5.20;2.87;;;;;;;;;;5076166;28;20598;-77
2022/09/22 05:35:19;;;;;;;4.90;2.97;;;;;;;;;;5075878;28;20531;-76
2022/09/22 05:38:23;;;;;;;3.03;2.73;;;;;;;;;;5076583;28;20183;-77
2022/09/22 05:41:27;;;;;;;5.70;2.90;;;;;;;;;;5076497;28;20211;-77
2022/09/22 05:44:32;;;;;;;4.53;3.10;;;;;;;;;;5076258;28;20542;-77
2022/09/22 05:47:37;;;;;;;4.03;3.53;;;;;;;;;;5075762;28;20662;-77
2022/09/22 05:50:43;;;;;;;5.00;3.30;;;;;;;;;;5086402;28;20647;-77
2022/09/22 05:53:47;;;;;;;7.57;3.30;;;;;;;;;;5062487;28;20187;-77
2022/09/22 05:56:51;;;;;;;4.37;3.00;;;;;;;;;;5072915;28;20191;-77
2022/09/22 05:59:55;;;;;;;11.60;3.30;;;;;;;;;;5073631;28;20175;-77
2022/09/22 06:02:59;;;;;;;7.60;2.80;;;;;;;;;;5064540;28;20686;-77
2022/09/22 06:06:03;;;;;;;3.80;3.10;;;;;;;;;;5086393;28;20207;-77
2022/09/22 06:09:07;;;;;;;3.80;3.10;;;;;;;;;;5075291;28;20619;-77
2022/09/22 06:12:11;;;;;;;6.13;3.37;;;;;;;;;;5077651;28;20211;-77
2022/09/22 06:15:16;;;;;;;6.70;3.27;;;;;;;;;;5064856;28;20179;-77
2022/09/22 06:18:20;;;;;;;7.23;3.97;;;;;;;;;;5076082;28;20627;-77
2022/09/22 06:21:24;;;;;;;5.53;3.40;;;;;;;;;;5077252;28;20180;-77
2022/09/22 06:24:28;;;;;;;7.13;3.30;;;;;;;;;;5077471;28;20195;-77
2022/09/22 06:27:33;;;;;;;4.07;3.67;;;;;;;;;;5078906;28;20231;-77
2022/09/22 06:30:40;;;;;;;3.93;3.53;;;;;;;;;;5076814;28;20180;-77
2022/09/22 06:33:47;;;;;;;7.03;3.90;;;;;;;;;;5077969;28;20175;-77
2022/09/22 06:36:54;;;;;;;7.37;3.63;;;;;;;;;;5088636;28;20172;-77
2022/09/22 06:39:59;;;;;;;4.90;3.90;;;;;;;;;;5065365;28;20179;-77
2022/09/22 06:43:10;;;;;;;5.43;3.83;;;;;;;;;;5078223;28;20223;-77
2022/09/22 06:46:17;;;;;;;5.13;3.67;;;;;;;;;;5078299;28;20207;-77
2022/09/22 06:49:21;;;;;;;6.00;3.57;;;;;;;;;;5077939;28;20635;-77
2022/09/22 06:52:26;;;;;;;3.57;3.13;;;;;;;;;;5089591;28;20552;-77
2022/09/22 06:55:30;;;;;;;5.30;2.77;;;;;;;;;;5065991;28;20207;-77
2022/09/22 06:58:34;;;;;;;3.53;2.90;;;;;;;;;;5078668;28;20171;-77
2022/09/22 07:01:40;;;;;;;4.33;3.00;;;;;;;;;;5080060;28;20215;-78
2022/09/22 07:04:47;;;;;;;5.47;2.60;;;;;;;;;;5079576;28;20183;-78
2022/09/22 07:07:51;;;;;;;4.27;2.70;;;;;;;;;;5081757;28;20207;-77
2022/09/22 07:10:57;;;;;;;5.70;2.77;;;;;;;;;;5081687;28;20184;-77
2022/09/22 07:14:02;;;;;;;4.27;2.70;;;;;;;;;;5079648;28;20175;-77
2022/09/22 07:17:06;;;;;;;8.77;2.90;;;;;;;;;;5079742;28;20195;-78
2022/09/22 07:20:11;;;;;;;4.53;2.57;;;;;;;;;;5080321;28;20171;-78
2022/09/22 07:23:17;;;;;;;8.17;2.90;;;;;;;;;;5080981;28;20211;-78
2022/09/22 07:26:32;;;;;;;6.47;2.87;;;;;;;;;;5080118;28;20203;-78
2022/09/22 07:29:37;;;;;;;6.53;3.10;;;;;;;;;;5081800;28;20184;-78
2022/09/22 07:32:41;;;;;;;4.80;3.60;;;;;;;;;;5082628;28;20211;-78
2022/09/22 07:35:45;;;;;;;5.40;3.60;;;;;;;;;;5085274;28;20199;-78
2022/09/22 07:38:51;;;;;;;6.23;3.77;;;;;;;;;;5082101;28;20175;-78
2022/09/22 07:41:56;;;;;;;9.67;3.40;;;;;;;;;;5085714;28;20215;-78
2022/09/22 07:45:12;;;;;;;4.40;2.97;;;;;;;;;;5086267;28;20183;-78
2022/09/22 07:48:35;;;;;;;6.70;2.80;;;;;;;;;;5084448;28;20216;-78
2022/09/22 07:51:40;;;;;;;3.47;2.60;;;;;;;;;;5085118;28;20220;-78
2022/09/22 07:54:44;;;;;;;4.60;3.30;;;;;;;;;;5085319;28;20184;-78
2022/09/22 07:57:56;;;;;;;12.57;3.40;;;;;;;;;;5084723;28;20619;-78
2022/09/22 08:01:08;;;;;;;62.63;5.53;;;;;;;;;;5086257;28;20180;-77
2022/09/22 08:04:17;;;;;;;15.70;3.20;;;;;;;;;;5084382;28;20315;-77
2022/09/22 08:07:21;;;;;;;4.67;2.73;;;;;;;;;;5084171;28;20655;-77
2022/09/22 08:10:26;;;;;;;12.07;2.33;;;;;;;;;;5083815;28;20195;-77
2022/09/22 08:13:30;;;;;;;3.73;2.00;;;;;;;;;;5083719;28;20207;-78
2022/09/22 08:16:37;;;;;;;7.83;2.00;;;;;;;;;;5083667;28;20175;-78
2022/09/22 08:19:41;;;;;;;1.90;1.70;;;;;;;;;;5085547;28;20175;-77
2022/09/22 08:22:52;;;;;;;3.17;1.73;;;;;;;;;;5083054;28;20219;-77
2022/09/22 08:26:05;;;;;;;3.13;1.93;;;;;;;;;;5081185;28;20188;-78
2022/09/22 08:29:10;;;;;;;4.00;1.93;;;;;;;;;;5081537;28;20192;-78
2022/09/22 08:32:16;;;;;;;4.07;1.60;;;;;;;;;;5081512;28;20210;-78
2022/09/22 08:35:21;;;;;;;24.93;2.43;;;;;;;;;;5080774;28;20180;-77
2022/09/22 08:38:27;;;;;;;4.20;2.10;;;;;;;;;;5079813;28;20195;-77
2022/09/22 08:41:50;;;;;;;2.60;1.87;;;;;;;;;;5079664;28;20207;-78
2022/09/22 08:45:06;;;;;;;6.17;2.90;;;;;;;;;;5078377;28;20175;-78
2022/09/22 08:51:53;;;;;;;3.53;2.20;;;;;;;;;;5081264;28;20692;-78
2022/09/22 08:54:59;;;;;;;8.37;2.63;;;;;;;;;;5079655;28;20191;-78
2022/09/22 08:58:19;;;;;;;1.83;1.60;;;;;;;;;;5069613;28;20183;-78
2022/09/22 09:01:42;;;;;;;2.70;1.60;;;;;;;;;;5081792;28;20207;-78
2022/09/22 09:05:08;;;;;;;3.60;2.40;;;;;;;;;;5080303;28;20184;-77
2022/09/22 09:08:31;;;;;;;6.17;2.03;;;;;;;;;;5080038;28;20211;-78
2022/09/22 09:12:00;;;;;;;20.77;3.13;;;;;;;;;;5080073;28;20215;-77
2022/09/22 09:15:26;;;;;;;22.80;3.33;;;;;;;;;;5079775;28;20171;-78
2022/09/22 09:18:35;;;;;;;11.60;2.53;;;;;;;;;;5091550;28;20211;-78
2022/09/22 09:21:46;;;;;;;13.80;2.43;;;;;;;;;;5080216;28;20211;-78
2022/09/22 09:24:57;;;;;;;2.50;2.00;;;;;;;;;;5090892;28;20176;-77
2022/09/22 09:28:17;;;;;;;5.57;2.63;;;;;;;;;;5079734;28;20212;-78
2022/09/22 09:31:37;;;;;;;4.10;2.27;;;;;;;;;;5077066;28;20184;-77
2022/09/22 09:34:41;;;;;;;5.57;1.77;;;;;;;;;;5084203;28;20563;-77
2022/09/22 09:37:47;;;;;;;1.93;1.57;;;;;;;;;;5097450;28;20179;-77
2022/09/22 09:40:57;;;;;;;3.03;1.73;;;;;;;;;;5096544;28;20187;-77
2022/09/22 09:44:03;;;;;;;3.00;1.70;;;;;;;;;;5097758;28;20622;-78
2022/09/22 09:47:35;;;;;;;5.63;1.30;;;;;;;;;;5100094;28;20251;-77
2022/09/22 09:50:39;;;;;;;13.53;2.27;;;;;;;;;;5099175;28;20170;-77
2022/09/22 09:53:46;;;;;;;3.50;1.30;;;;;;;;;;5098977;28;20187;-78
2022/09/22 09:57:09;;;;;;;2.73;1.40;;;;;;;;;;5098009;28;20206;-77
2022/09/22 10:00:30;;;;;;;2.07;1.27;;;;;;;;;;5098107;28;20196;-78
2022/09/22 10:03:42;;;;;;;2.87;1.50;;;;;;;;;;5098392;28;20185;-78
2022/09/22 10:06:47;;;;;;;3.00;1.30;;;;;;;;;;5098534;28;20628;-77
2022/09/22 10:09:53;;;;;;;1.83;1.20;;;;;;;;;;5098515;28;20176;-78
2022/09/22 10:13:03;;;;;;;2.80;1.10;;;;;;;;;;5100311;28;20217;-78
2022/09/22 10:16:24;;;;;;;25.13;2.40;;;;;;;;;;5098470;28;20187;-78
2022/09/22 10:19:30;;;;;;;1.93;1.00;;;;;;;;;;5098861;28;20177;-77
2022/09/22 10:22:34;;;;;;;1.53;1.17;;;;;;;;;;5097346;28;20213;-77
2022/09/22 10:25:38;;;;;;;5.17;1.20;;;;;;;;;;5096185;28;20195;-77
2022/09/22 10:28:46;;;;;;;16.00;1.70;;;;;;;;;;5097209;28;20219;-77
2022/09/22 10:32:04;;;;;;;5.23;1.20;;;;;;;;;;5094883;28;20216;-77
2022/09/22 10:35:27;;;;;;;2.30;1.03;;;;;;;;;;5096850;28;20180;-77
2022/09/22 10:38:34;;;;;;;1.77;1.20;;;;;;;;;;5096639;28;20173;-77
2022/09/22 10:41:39;;;;;;;1.63;1.10;;;;;;;;;;5096896;28;20215;-77
2022/09/22 10:44:43;;;;;;;1.60;1.20;;;;;;;;;;5084517;28;20522;-77
2022/09/22 10:48:11;;;;;;;1.70;1.27;;;;;;;;;;5095669;28;20211;-77
2022/09/22 10:51:59;;;;;;;1.50;1.20;;;;;;;;;;5096399;28;20175;-77
2022/09/22 10:55:27;;;;;;;2.00;1.20;;;;;;;;;;5095542;28;20181;-77
2022/09/22 10:58:52;;;;;;;2.67;1.20;;;;;;;;;;5096100;28;20175;-78
2022/09/22 11:02:34;;;;;;;2.17;1.00;;;;;;;;;;5096902;28;20214;-77
2022/09/22 11:13:34;;;;;;;56.83;3.97;;;;;;;;;;5099759;28;20206;-77
2022/09/22 11:16:44;;;;;;;8.30;1.60;;;;;;;;;;5099931;28;20179;-77
2022/09/22 11:20:10;;;;;;;191.33;11.20;;;;;;;;;;5099566;28;20179;-77
2022/09/22 11:23:23;;;;;;;10.13;1.40;;;;;;;;;;5099538;28;20217;-77
2022/09/22 11:26:34;;;;;;;3.63;0.90;;;;;;;;;;5099268;28;20195;-77
2022/09/22 11:29:45;;;;;;;30.87;2.77;;;;;;;;;;5098512;28;20171;-77
2022/09/22 11:33:01;;;;;;;18.77;1.80;;;;;;;;;;5099358;28;20563;-77
2022/09/22 11:36:15;;;;;;;2.43;1.13;;;;;;;;;;5086650;28;20187;-77
2022/09/22 11:39:20;;;;;;;2.43;1.63;;;;;;;;;;5098907;28;20175;-77
2022/09/22 11:42:52;;;;;;;16.30;1.90;;;;;;;;;;5098097;28;20218;-77
2022/09/22 11:45:59;;;;;;;1.30;1.10;;;;;;;;;;5099202;28;20175;-77
2022/09/22 11:49:25;;;;;;;27.03;2.57;;;;;;;;;;5086537;28;20199;-77
2022/09/22 11:53:10;;;;;;;9.23;1.80;;;;;;;;;;5098797;28;20222;-77
2022/09/22 11:56:27;;;;;;;9.93;1.80;;;;;;;;;;5099006;28;20542;-77
2022/09/22 12:00:04;;;;;;;9.60;1.80;;;;;;;;;;5099098;28;20179;-77
2022/09/22 12:03:22;;;;;;;20.63;1.87;;;;;;;;;;5098107;28;20566;-77
2022/09/22 12:06:31;;;;;;;1.60;1.20;;;;;;;;;;5099666;28;20194;-77
2022/09/22 12:09:48;;;;;;;78.60;9.27;;;;;;;;;;5097214;28;20210;-77
2022/09/22 12:12:55;;;;;;;1.83;1.40;;;;;;;;;;5098848;28;20222;-77
2022/09/22 12:16:12;;;;;;;7.87;1.50;;;;;;;;;;5100171;28;20179;-78
2022/09/22 12:19:49;;;;;;;7.73;1.60;;;;;;;;;;5099233;28;20175;-78
2022/09/22 12:23:08;;;;;;;8.70;1.53;;;;;;;;;;5100226;28;20547;-78
2022/09/22 12:26:23;;;;;;;15.20;1.73;;;;;;;;;;5094527;28;20198;-77
2022/09/22 12:29:29;;;;;;;4.23;1.00;;;;;;;;;;5090607;28;20705;-77
2022/09/22 12:32:38;;;;;;;12.20;1.60;;;;;;;;;;5092032;28;20218;-78
2022/09/22 12:35:52;;;;;;;3.90;1.20;;;;;;;;;;5087031;28;20203;-78
2022/09/22 12:39:13;;;;;;;16.03;1.83;;;;;;;;;;5078638;28;20176;-78
2022/09/22 12:42:17;;;;;;;14.27;1.67;;;;;;;;;;5088798;28;20219;-78
2022/09/22 12:45:33;;;;;;;6.53;1.33;;;;;;;;;;5078157;28;20175;-79
2022/09/22 12:48:38;;;;;;;5.23;1.10;;;;;;;;;;5066469;28;20212;-79
2022/09/22 12:51:42;;;;;;;3.37;1.30;;;;;;;;;;5079220;28;20220;-79
2022/09/22 12:54:46;;;;;;;12.97;1.70;;;;;;;;;;5078130;28;20180;-78
2022/09/22 12:57:51;;;;;;;13.73;1.80;;;;;;;;;;5078707;28;20176;-79
2022/09/22 13:01:26;;;;;;;9.63;1.50;;;;;;;;;;5078456;28;20514;-79
2022/09/22 13:04:30;;;;;;;4.87;1.30;;;;;;;;;;5077812;28;20180;-78
2022/09/22 13:07:42;;;;;;;14.10;1.87;;;;;;;;;;5077226;28;20184;-79
2022/09/22 13:11:08;;;;;;;5.07;1.40;;;;;;;;;;5077508;28;20190;-78
2022/09/22 13:14:49;;;;;;;2.43;1.10;;;;;;;;;;5077360;28;20180;-78
2022/09/22 13:17:53;;;;;;;3.07;1.30;;;;;;;;;;5083383;28;20193;-77
2022/09/22 13:21:19;;;;;;;95.33;6.43;;;;;;;;;;5095046;28;20579;-77
2022/09/22 13:24:24;;;;;;;3.23;1.30;;;;;;;;;;5095459;28;20629;-77
2022/09/22 13:27:28;;;;;;;1.93;1.37;;;;;;;;;;5082557;28;20183;-77
2022/09/22 13:30:32;;;;;;;2.07;1.50;;;;;;;;;;5082675;28;20531;-77
2022/09/22 13:33:36;;;;;;;3.00;1.20;;;;;;;;;;5082600;28;20194;-77
2022/09/22 13:36:42;;;;;;;2.03;1.50;;;;;;;;;;5094507;28;20178;-77
2022/09/22 13:39:50;;;;;;;2.67;2.10;;;;;;;;;;5095193;28;20195;-76
2022/09/22 13:43:04;;;;;;;18.17;5.63;;;;;;;;;;5095234;28;20214;-77
2022/09/22 13:46:20;;;;;;;2.70;1.40;;;;;;;;;;5094389;28;20175;-77
2022/09/22 13:49:36;;;;;;;3.93;1.40;;;;;;;;;;5093962;28;20214;-77
2022/09/22 13:52:41;;;;;;;4.03;1.97;;;;;;;;;;5093734;28;20215;-77
2022/09/22 13:55:48;;;;;;;1.47;1.10;;;;;;;;;;5093347;28;20202;-77
2022/09/22 13:58:57;;;;;;;2.70;1.27;;;;;;;;;;5093880;28;20179;-76
2022/09/22 14:02:07;;;;;;;1.63;1.23;;;;;;;;;;5093994;28;20211;-77
2022/09/22 14:05:20;;;;;;;4.20;1.53;;;;;;;;;;5093966;28;20171;-77
2022/09/22 14:08:29;;;;;;;6.87;1.90;;;;;;;;;;5093967;28;20215;-76
2022/09/22 14:11:35;;;;;;;1.70;1.43;;;;;;;;;;5094001;28;20215;-77
2022/09/22 14:14:39;;;;;;;2.70;1.70;;;;;;;;;;5094037;28;20190;-77
2022/09/22 14:17:43;;;;;;;3.03;1.60;;;;;;;;;;5094354;28;20175;-77
2022/09/22 14:20:47;;;;;;;2.23;1.40;;;;;;;;;;5094160;28;20167;-77
2022/09/22 14:23:52;;;;;;;7.33;1.80;;;;;;;;;;5094121;28;20183;-77
2022/09/22 14:27:00;;;;;;;1.97;1.17;;;;;;;;;;5093366;28;20187;-77
2022/09/22 14:30:05;;;;;;;3.33;1.37;;;;;;;;;;5093647;28;20199;-76
2022/09/22 14:33:16;;;;;;;6.53;1.70;;;;;;;;;;5093036;28;20555;-77
2022/09/22 14:36:24;;;;;;;2.40;1.50;;;;;;;;;;5093269;28;20179;-77
2022/09/22 14:39:32;;;;;;;1.47;1.17;;;;;;;;;;5093501;28;20186;-76
2022/09/22 14:42:37;;;;;;;1.83;1.20;;;;;;;;;;5091972;28;20681;-77
2022/09/22 14:46:01;;;;;;;22.67;2.40;;;;;;;;;;5093734;28;20183;-77
2022/09/22 14:49:42;;;;;;;7.77;2.23;;;;;;;;;;5094042;28;20203;-77
2022/09/22 14:52:49;;;;;;;2.03;1.37;;;;;;;;;;5093118;28;20219;-76
2022/09/22 14:56:05;;;;;;;4.13;1.40;;;;;;;;;;5093676;28;20666;-77
2022/09/22 15:02:41;;;;;;;3.47;1.50;;;;;;;;;;5093040;28;20226;-77
2022/09/22 15:05:46;;;;;;;4.37;1.57;;;;;;;;;;5093604;28;20179;-77
2022/09/22 15:08:51;;;;;;;1.47;1.30;;;;;;;;;;5093306;28;20206;-77
2022/09/22 15:11:59;;;;;;;3.13;1.90;;;;;;;;;;5093705;28;20214;-77
2022/09/22 15:15:25;;;;;;;3.90;2.10;;;;;;;;;;5093371;28;20179;-77
2022/09/22 15:18:29;;;;;;;3.50;1.60;;;;;;;;;;5090262;28;20658;-77
2022/09/22 15:21:37;;;;;;;25.97;2.60;;;;;;;;;;5085537;28;20222;-77
2022/09/22 15:24:41;;;;;;;1.33;1.10;;;;;;;;;;5072553;28;20179;-76
2022/09/22 15:27:45;;;;;;;13.90;1.60;;;;;;;;;;5072955;28;20246;-76
2022/09/22 15:30:51;;;;;;;2.83;1.20;;;;;;;;;;5072644;28;20172;-76
2022/09/22 15:34:00;;;;;;;4.33;1.60;;;;;;;;;;5073038;28;20184;-76
2022/09/22 15:37:04;;;;;;;2.23;1.30;;;;;;;;;;5072197;28;20187;-75
2022/09/22 15:40:20;;;;;;;1.90;1.20;;;;;;;;;;5080076;28;20203;-76
2022/09/22 15:43:28;;;;;;;3.63;1.50;;;;;;;;;;5093151;28;20214;-76
2022/09/22 15:46:34;;;;;;;3.37;1.40;;;;;;;;;;5092146;28;20195;-76
2022/09/22 15:49:39;;;;;;;2.97;1.40;;;;;;;;;;5092775;28;20203;-76
2022/09/22 15:52:44;;;;;;;3.50;1.30;;;;;;;;;;5069302;28;20550;-77
2022/09/22 15:55:53;;;;;;;2.90;1.40;;;;;;;;;;5095551;28;20202;-76
2022/09/22 15:59:00;;;;;;;2.17;1.40;;;;;;;;;;5096194;28;20179;-76
2022/09/22 16:02:10;;;;;;;4.07;1.67;;;;;;;;;;5095765;28;20210;-81
2022/09/22 16:05:17;;;;;;;2.70;1.73;;;;;;;;;;5100915;28;20178;-79
2022/09/22 16:08:32;;;;;;;1.80;1.40;;;;;;;;;;5080689;28;20184;-79
2022/09/22 16:11:38;;;;;;;3.27;1.87;;;;;;;;;;5081579;28;20694;-77
2022/09/22 16:14:42;;;;;;;37.13;3.53;;;;;;;;;;5080377;28;20184;-78
2022/09/22 16:17:46;;;;;;;8.63;2.53;;;;;;;;;;5080693;28;20511;-79
2022/09/22 16:20:50;;;;;;;4.97;1.70;;;;;;;;;;5079556;28;20172;-80
2022/09/22 16:23:57;;;;;;;9.70;1.70;;;;;;;;;;5079759;28;20175;-80
2022/09/22 16:27:06;;;;;;;4.20;1.57;;;;;;;;;;5077399;28;20176;-80
2022/09/22 16:30:10;;;;;;;5.40;1.47;;;;;;;;;;5083200;28;20222;-80
2022/09/22 16:33:14;;;;;;;3.07;1.10;;;;;;;;;;5099000;28;20214;-80
2022/09/22 16:36:20;;;;;;;2.10;1.20;;;;;;;;;;5096579;28;20178;-81
2022/09/22 16:39:24;;;;;;;50.33;3.83;;;;;;;;;;5097916;28;20179;-79
2022/09/22 16:42:28;;;;;;;3.77;1.60;;;;;;;;;;5085972;28;20214;-78
2022/09/22 16:48:58;;;;;;;2.27;1.40;;;;;;;;;;5098674;28;20519;-78
2022/09/22 16:52:03;;;;;;;1.80;1.40;;;;;;;;;;5098706;28;20214;-79
2022/09/22 16:55:07;;;;;;;28.10;3.13;;;;;;;;;;5098602;28;20178;-80
2022/09/22 16:58:12;;;;;;;20.03;2.67;;;;;;;;;;5096251;28;20626;-77
2022/09/22 17:01:16;;;;;;;5.83;1.80;;;;;;;;;;5083647;28;20191;-78
2022/09/22 17:04:20;;;;;;;14.57;2.13;;;;;;;;;;5076508;28;20175;-78
2022/09/22 17:07:25;;;;;;;19.20;2.13;;;;;;;;;;5084903;28;20195;-81
2022/09/22 17:10:34;;;;;;;10.17;2.33;;;;;;;;;;5069127;28;20235;-81
2022/09/22 17:13:42;;;;;;;4.13;1.77;;;;;;;;;;5084277;28;20191;-81
2022/09/22 17:16:50;;;;;;;5.47;1.87;;;;;;;;;;5095927;28;20206;-81
2022/09/22 17:19:54;;;;;;;3.17;1.60;;;;;;;;;;5079436;28;20199;-82
2022/09/22 17:22:59;;;;;;;5.07;2.10;;;;;;;;;;5075608;28;20686;-81
2022/09/22 17:26:06;;;;;;;4.47;1.70;;;;;;;;;;5063812;28;20175;-80
2022/09/22 17:29:10;;;;;;;10.07;2.40;;;;;;;;;;5075443;28;20211;-82
2022/09/22 17:32:15;;;;;;;4.40;2.10;;;;;;;;;;5066679;28;20682;-82
2022/09/22 17:35:19;;;;;;;2.00;1.80;;;;;;;;;;5083507;28;20178;-81
2022/09/22 17:38:25;;;;;;;3.03;2.17;;;;;;;;;;5071455;28;20563;-80
2022/09/22 17:41:31;;;;;;;2.90;2.10;;;;;;;;;;5062599;28;20678;-82
2022/09/22 17:44:36;;;;;;;3.27;2.23;;;;;;;;;;5051257;28;20195;-82
2022/09/22 17:57:56;;;;;;;6.13;2.23;;;;;;;;;;5096706;28;20524;-78
2022/09/22 18:01:00;;;;;;;4.13;2.10;;;;;;;;;;5096818;28;20179;-78
2022/09/22 18:04:04;;;;;;;4.03;2.00;;;;;;;;;;5083554;28;20507;-80
2022/09/22 18:07:11;;;;;;;2.30;2.10;;;;;;;;;;5095292;28;20171;-81
2022/09/22 18:10:16;;;;;;;3.40;2.30;;;;;;;;;;5095324;28;20207;-82
2022/09/22 18:13:20;;;;;;;3.43;2.20;;;;;;;;;;5067840;28;20227;-80
2022/09/22 18:16:29;;;;;;;3.20;2.60;;;;;;;;;;5063677;28;20176;-82
2022/09/22 18:19:35;;;;;;;4.40;2.60;;;;;;;;;;5075149;28;20543;-82
2022/09/22 18:22:41;;;;;;;5.03;2.30;;;;;;;;;;5064709;28;20681;-83
2022/09/22 18:25:45;;;;;;;2.90;2.30;;;;;;;;;;5077617;28;20190;-81
2022/09/22 18:28:51;;;;;;;6.10;2.17;;;;;;;;;;5095246;28;20523;-80
2022/09/22 18:31:58;;;;;;;4.67;2.30;;;;;;;;;;5071686;28;20218;-81
2022/09/22 18:35:02;;;;;;;3.10;2.77;;;;;;;;;;5095213;28;20178;-82
2022/09/22 18:38:06;;;;;;;4.27;2.40;;;;;;;;;;5095937;28;20179;-77
2022/09/22 18:41:10;;;;;;;5.47;2.20;;;;;;;;;;5095510;28;20179;-78
2022/09/22 18:44:17;;;;;;;2.53;2.13;;;;;;;;;;5097861;28;20533;-78
2022/09/22 18:47:22;;;;;;;3.17;2.23;;;;;;;;;;5096269;28;20557;-77
2022/09/22 18:50:33;;;;;;;2.80;2.27;;;;;;;;;;5095312;28;20542;-77
2022/09/22 18:53:37;;;;;;;2.63;2.13;;;;;;;;;;5096191;28;20183;-77
2022/09/22 18:56:44;;;;;;;4.10;2.60;;;;;;;;;;5094147;28;20202;-77
2022/09/22 18:59:49;;;;;;;2.77;2.47;;;;;;;;;;5084090;28;20190;-79
2022/09/22 19:02:54;;;;;;;10.37;2.73;;;;;;;;;;5087142;28;20596;-81
2022/09/22 19:05:58;;;;;;;5.73;2.23;;;;;;;;;;5096878;28;20182;-80
2022/09/22 19:09:02;;;;;;;5.57;2.30;;;;;;;;;;5071543;28;20183;-81
2022/09/22 19:12:08;;;;;;;2.60;2.40;;;;;;;;;;5095636;28;20206;-80
2022/09/22 19:15:15;;;;;;;5.07;2.53;;;;;;;;;;5095171;28;20522;-78
2022/09/22 19:18:20;;;;;;;5.80;2.27;;;;;;;;;;5089996;28;20685;-78